sensor_id;sensor_type;location;lat;lon;timestamp;P1;durP1;ratioP1;P2;durP2;ratioP2
17369;SDS011;8802;52.402;4.920;2023-06-10T00:00:27;5.13;;;4.18;;
17369;SDS011;8802;52.402;4.920;2023-06-10T00:02:55;5.80;;;4.78;;
17369;SDS011;8802;52.402;4.920;2023-06-10T00:05:22;6.35;;;4.40;;
17369;SDS011;8802;52.402;4.920;2023-06-10T00:07:49;4.72;;;4.20;;
17369;SDS011;8802;52.402;4.920;2023-06-10T00:10:17;5.15;;;4.65;;
17369;SDS011;8802;52.402;4.920;2023-06-10T00:12:44;7.88;;;4.57;;
17369;SDS011;8802;52.402;4.920;2023-06-10T00:15:11;6.80;;;4.70;;
17369;SDS011;8802;52.402;4.920;2023-06-10T00:17:37;6.28;;;4.57;;
17369;SDS011;8802;52.402;4.920;2023-06-10T00:20:06;5.53;;;4.45;;
17369;SDS011;8802;52.402;4.920;2023-06-10T00:22:36;6.82;;;4.40;;
17369;SDS011;8802;52.402;4.920;2023-06-10T00:25:03;7.28;;;4.15;;
17369;SDS011;8802;52.402;4.920;2023-06-10T00:27:32;5.07;;;4.32;;
17369;SDS011;8802;52.402;4.920;2023-06-10T00:30:00;6.68;;;4.38;;
17369;SDS011;8802;52.402;4.920;2023-06-10T00:32:29;5.13;;;4.50;;
17369;SDS011;8802;52.402;4.920;2023-06-10T00:34:56;4.78;;;4.32;;
17369;SDS011;8802;52.402;4.920;2023-06-10T00:37:23;7.88;;;4.60;;
17369;SDS011;8802;52.402;4.920;2023-06-10T00:39:49;7.57;;;4.28;;
17369;SDS011;8802;52.402;4.920;2023-06-10T00:42:16;4.40;;;4.00;;
17369;SDS011;8802;52.402;4.920;2023-06-10T00:44:46;5.78;;;4.18;;
17369;SDS011;8802;52.402;4.920;2023-06-10T00:47:13;6.50;;;4.20;;
17369;SDS011;8802;52.402;4.920;2023-06-10T00:49:40;6.25;;;4.50;;
17369;SDS011;8802;52.402;4.920;2023-06-10T00:52:07;7.78;;;4.38;;
17369;SDS011;8802;52.402;4.920;2023-06-10T00:54:35;4.90;;;4.15;;
17369;SDS011;8802;52.402;4.920;2023-06-10T00:57:03;5.05;;;4.10;;
17369;SDS011;8802;52.402;4.920;2023-06-10T00:59:31;5.88;;;4.35;;
17369;SDS011;8802;52.402;4.920;2023-06-10T01:02:00;7.90;;;4.20;;
17369;SDS011;8802;52.402;4.920;2023-06-10T01:04:28;6.65;;;4.43;;
17369;SDS011;8802;52.402;4.920;2023-06-10T01:06:57;5.53;;;4.80;;
17369;SDS011;8802;52.402;4.920;2023-06-10T01:09:32;6.43;;;4.57;;
17369;SDS011;8802;52.402;4.920;2023-06-10T01:12:08;6.45;;;4.55;;
17369;SDS011;8802;52.402;4.920;2023-06-10T01:14:40;7.38;;;4.13;;
17369;SDS011;8802;52.402;4.920;2023-06-10T01:17:11;6.90;;;4.75;;
17369;SDS011;8802;52.402;4.920;2023-06-10T01:19:41;6.05;;;4.13;;
17369;SDS011;8802;52.402;4.920;2023-06-10T01:22:10;8.23;;;4.22;;
17369;SDS011;8802;52.402;4.920;2023-06-10T01:24:40;5.55;;;4.43;;
17369;SDS011;8802;52.402;4.920;2023-06-10T01:27:10;6.05;;;4.30;;
17369;SDS011;8802;52.402;4.920;2023-06-10T01:29:40;7.25;;;4.40;;
17369;SDS011;8802;52.402;4.920;2023-06-10T01:32:12;7.53;;;4.18;;
17369;SDS011;8802;52.402;4.920;2023-06-10T01:34:43;4.88;;;4.38;;
17369;SDS011;8802;52.402;4.920;2023-06-10T01:37:13;8.02;;;4.45;;
17369;SDS011;8802;52.402;4.920;2023-06-10T01:39:42;6.93;;;5.43;;
17369;SDS011;8802;52.402;4.920;2023-06-10T01:42:11;5.32;;;4.53;;
17369;SDS011;8802;52.402;4.920;2023-06-10T01:44:39;6.10;;;5.30;;
17369;SDS011;8802;52.402;4.920;2023-06-10T01:47:07;6.38;;;4.88;;
17369;SDS011;8802;52.402;4.920;2023-06-10T01:49:34;5.22;;;4.38;;
17369;SDS011;8802;52.402;4.920;2023-06-10T01:52:00;7.75;;;4.53;;
17369;SDS011;8802;52.402;4.920;2023-06-10T01:54:29;5.30;;;4.53;;
17369;SDS011;8802;52.402;4.920;2023-06-10T01:56:56;7.97;;;5.35;;
17369;SDS011;8802;52.402;4.920;2023-06-10T01:59:23;6.32;;;4.75;;
17369;SDS011;8802;52.402;4.920;2023-06-10T02:01:50;7.18;;;4.90;;
17369;SDS011;8802;52.402;4.920;2023-06-10T02:04:16;8.02;;;5.78;;
17369;SDS011;8802;52.402;4.920;2023-06-10T02:06:43;5.80;;;4.85;;
17369;SDS011;8802;52.402;4.920;2023-06-10T02:09:11;6.05;;;4.53;;
17369;SDS011;8802;52.402;4.920;2023-06-10T02:11:39;8.70;;;4.97;;
17369;SDS011;8802;52.402;4.920;2023-06-10T02:14:06;5.15;;;4.65;;
17369;SDS011;8802;52.402;4.920;2023-06-10T02:16:33;7.28;;;5.38;;
17369;SDS011;8802;52.402;4.920;2023-06-10T02:18:59;6.07;;;5.00;;
17369;SDS011;8802;52.402;4.920;2023-06-10T02:21:30;7.65;;;5.07;;
17369;SDS011;8802;52.402;4.920;2023-06-10T02:23:59;7.85;;;5.07;;
17369;SDS011;8802;52.402;4.920;2023-06-10T02:26:26;8.43;;;5.57;;
17369;SDS011;8802;52.402;4.920;2023-06-10T02:28:54;6.78;;;5.13;;
17369;SDS011;8802;52.402;4.920;2023-06-10T02:31:21;5.22;;;4.75;;
17369;SDS011;8802;52.402;4.920;2023-06-10T02:33:49;6.63;;;5.03;;
17369;SDS011;8802;52.402;4.920;2023-06-10T02:36:16;7.43;;;5.80;;
17369;SDS011;8802;52.402;4.920;2023-06-10T02:38:42;6.63;;;5.03;;
17369;SDS011;8802;52.402;4.920;2023-06-10T02:41:09;5.50;;;4.90;;
17369;SDS011;8802;52.402;4.920;2023-06-10T02:43:36;6.57;;;5.65;;
17369;SDS011;8802;52.402;4.920;2023-06-10T02:46:05;7.18;;;4.97;;
17369;SDS011;8802;52.402;4.920;2023-06-10T02:48:38;7.07;;;4.95;;
17369;SDS011;8802;52.402;4.920;2023-06-10T02:51:07;7.55;;;5.32;;
17369;SDS011;8802;52.402;4.920;2023-06-10T02:53:34;8.45;;;5.82;;
17369;SDS011;8802;52.402;4.920;2023-06-10T02:56:01;6.25;;;5.63;;
17369;SDS011;8802;52.402;4.920;2023-06-10T02:58:28;7.18;;;5.45;;
17369;SDS011;8802;52.402;4.920;2023-06-10T03:00:55;7.80;;;5.10;;
17369;SDS011;8802;52.402;4.920;2023-06-10T03:03:24;6.82;;;5.45;;
17369;SDS011;8802;52.402;4.920;2023-06-10T03:05:52;7.32;;;5.35;;
17369;SDS011;8802;52.402;4.920;2023-06-10T03:08:19;8.82;;;5.55;;
17369;SDS011;8802;52.402;4.920;2023-06-10T03:10:46;5.57;;;5.05;;
17369;SDS011;8802;52.402;4.920;2023-06-10T03:13:13;6.60;;;5.22;;
17369;SDS011;8802;52.402;4.920;2023-06-10T03:15:40;7.43;;;5.82;;
17369;SDS011;8802;52.402;4.920;2023-06-10T03:18:07;7.30;;;4.95;;
17369;SDS011;8802;52.402;4.920;2023-06-10T03:20:35;9.05;;;5.07;;
17369;SDS011;8802;52.402;4.920;2023-06-10T03:23:03;9.48;;;6.25;;
17369;SDS011;8802;52.402;4.920;2023-06-10T03:25:31;9.35;;;5.65;;
17369;SDS011;8802;52.402;4.920;2023-06-10T03:27:58;7.75;;;5.60;;
17369;SDS011;8802;52.402;4.920;2023-06-10T03:30:25;8.75;;;5.18;;
17369;SDS011;8802;52.402;4.920;2023-06-10T03:32:53;7.95;;;5.88;;
17369;SDS011;8802;52.402;4.920;2023-06-10T03:35:20;5.90;;;5.20;;
17369;SDS011;8802;52.402;4.920;2023-06-10T03:37:48;6.32;;;5.40;;
17369;SDS011;8802;52.402;4.920;2023-06-10T03:40:15;6.47;;;5.60;;
17369;SDS011;8802;52.402;4.920;2023-06-10T03:42:42;7.05;;;5.45;;
17369;SDS011;8802;52.402;4.920;2023-06-10T03:45:10;5.97;;;5.05;;
17369;SDS011;8802;52.402;4.920;2023-06-10T03:47:37;12.13;;;5.95;;
17369;SDS011;8802;52.402;4.920;2023-06-10T03:50:05;10.02;;;5.38;;
17369;SDS011;8802;52.402;4.920;2023-06-10T03:52:33;6.68;;;5.03;;
17369;SDS011;8802;52.402;4.920;2023-06-10T03:55:01;7.32;;;5.60;;
17369;SDS011;8802;52.402;4.920;2023-06-10T03:57:28;7.53;;;5.70;;
17369;SDS011;8802;52.402;4.920;2023-06-10T03:59:55;12.07;;;6.50;;
17369;SDS011;8802;52.402;4.920;2023-06-10T04:02:22;8.73;;;5.78;;
17369;SDS011;8802;52.402;4.920;2023-06-10T04:04:49;8.82;;;5.68;;
17369;SDS011;8802;52.402;4.920;2023-06-10T04:07:16;7.97;;;5.07;;
17369;SDS011;8802;52.402;4.920;2023-06-10T04:09:45;8.82;;;5.85;;
17369;SDS011;8802;52.402;4.920;2023-06-10T04:12:14;7.15;;;5.25;;
17369;SDS011;8802;52.402;4.920;2023-06-10T04:14:41;9.93;;;6.00;;
17369;SDS011;8802;52.402;4.920;2023-06-10T04:17:08;8.70;;;5.93;;
17369;SDS011;8802;52.402;4.920;2023-06-10T04:19:35;6.30;;;4.95;;
17369;SDS011;8802;52.402;4.920;2023-06-10T04:22:02;7.07;;;5.88;;
17369;SDS011;8802;52.402;4.920;2023-06-10T04:24:30;7.35;;;6.00;;
17369;SDS011;8802;52.402;4.920;2023-06-10T04:26:57;6.03;;;5.38;;
17369;SDS011;8802;52.402;4.920;2023-06-10T04:29:25;7.75;;;5.13;;
17369;SDS011;8802;52.402;4.920;2023-06-10T04:31:52;6.72;;;5.55;;
17369;SDS011;8802;52.402;4.920;2023-06-10T04:34:19;8.07;;;5.85;;
17369;SDS011;8802;52.402;4.920;2023-06-10T04:36:46;6.30;;;5.70;;
17369;SDS011;8802;52.402;4.920;2023-06-10T04:39:13;7.05;;;5.95;;
17369;SDS011;8802;52.402;4.920;2023-06-10T04:41:41;7.72;;;5.63;;
17369;SDS011;8802;52.402;4.920;2023-06-10T04:44:08;6.68;;;5.40;;
17369;SDS011;8802;52.402;4.920;2023-06-10T04:46:37;6.80;;;5.88;;
17369;SDS011;8802;52.402;4.920;2023-06-10T04:49:04;7.30;;;5.93;;
17369;SDS011;8802;52.402;4.920;2023-06-10T04:51:31;6.50;;;5.38;;
17369;SDS011;8802;52.402;4.920;2023-06-10T04:53:58;9.43;;;6.18;;
17369;SDS011;8802;52.402;4.920;2023-06-10T04:56:27;6.75;;;5.30;;
17369;SDS011;8802;52.402;4.920;2023-06-10T04:58:55;7.45;;;5.95;;
17369;SDS011;8802;52.402;4.920;2023-06-10T05:01:21;9.15;;;5.45;;
17369;SDS011;8802;52.402;4.920;2023-06-10T05:03:50;6.00;;;5.40;;
17369;SDS011;8802;52.402;4.920;2023-06-10T05:06:17;6.32;;;5.40;;
17369;SDS011;8802;52.402;4.920;2023-06-10T05:08:44;6.90;;;5.75;;
17369;SDS011;8802;52.402;4.920;2023-06-10T05:11:10;7.57;;;6.05;;
17369;SDS011;8802;52.402;4.920;2023-06-10T05:13:37;7.40;;;6.15;;
17369;SDS011;8802;52.402;4.920;2023-06-10T05:16:05;6.90;;;6.20;;
17369;SDS011;8802;52.402;4.920;2023-06-10T05:18:32;8.52;;;5.95;;
17369;SDS011;8802;52.402;4.920;2023-06-10T05:21:01;8.45;;;5.80;;
17369;SDS011;8802;52.402;4.920;2023-06-10T05:23:28;10.75;;;6.18;;
17369;SDS011;8802;52.402;4.920;2023-06-10T05:25:55;6.97;;;6.28;;
17369;SDS011;8802;52.402;4.920;2023-06-10T05:28:23;7.45;;;6.10;;
17369;SDS011;8802;52.402;4.920;2023-06-10T05:30:50;7.05;;;6.15;;
17369;SDS011;8802;52.402;4.920;2023-06-10T05:33:17;7.28;;;6.63;;
17369;SDS011;8802;52.402;4.920;2023-06-10T05:35:44;7.68;;;5.93;;
17369;SDS011;8802;52.402;4.920;2023-06-10T05:38:12;7.20;;;6.43;;
17369;SDS011;8802;52.402;4.920;2023-06-10T05:40:39;7.65;;;6.30;;
17369;SDS011;8802;52.402;4.920;2023-06-10T05:43:06;6.22;;;5.55;;
17369;SDS011;8802;52.402;4.920;2023-06-10T05:45:34;6.90;;;5.45;;
17369;SDS011;8802;52.402;4.920;2023-06-10T05:48:01;7.63;;;6.70;;
17369;SDS011;8802;52.402;4.920;2023-06-10T05:50:28;7.88;;;6.15;;
17369;SDS011;8802;52.402;4.920;2023-06-10T05:52:55;7.07;;;6.38;;
17369;SDS011;8802;52.402;4.920;2023-06-10T05:55:24;7.03;;;6.10;;
17369;SDS011;8802;52.402;4.920;2023-06-10T05:57:57;6.18;;;5.57;;
17369;SDS011;8802;52.402;4.920;2023-06-10T06:00:25;7.53;;;6.10;;
17369;SDS011;8802;52.402;4.920;2023-06-10T06:02:52;6.97;;;6.10;;
17369;SDS011;8802;52.402;4.920;2023-06-10T06:05:19;10.10;;;6.32;;
17369;SDS011;8802;52.402;4.920;2023-06-10T06:07:46;9.07;;;6.53;;
17369;SDS011;8802;52.402;4.920;2023-06-10T06:10:13;7.00;;;5.80;;
17369;SDS011;8802;52.402;4.920;2023-06-10T06:12:41;6.95;;;5.43;;
17369;SDS011;8802;52.402;4.920;2023-06-10T06:15:08;6.80;;;5.90;;
17369;SDS011;8802;52.402;4.920;2023-06-10T06:17:36;8.93;;;6.20;;
17369;SDS011;8802;52.402;4.920;2023-06-10T06:20:03;8.25;;;7.03;;
17369;SDS011;8802;52.402;4.920;2023-06-10T06:22:31;8.90;;;6.28;;
17369;SDS011;8802;52.402;4.920;2023-06-10T06:24:58;8.60;;;6.20;;
17369;SDS011;8802;52.402;4.920;2023-06-10T06:27:25;7.47;;;6.60;;
17369;SDS011;8802;52.402;4.920;2023-06-10T06:29:53;7.07;;;5.75;;
17369;SDS011;8802;52.402;4.920;2023-06-10T06:32:20;10.05;;;6.85;;
17369;SDS011;8802;52.402;4.920;2023-06-10T06:34:47;8.38;;;6.85;;
17369;SDS011;8802;52.402;4.920;2023-06-10T06:37:14;12.15;;;7.20;;
17369;SDS011;8802;52.402;4.920;2023-06-10T06:39:41;7.25;;;6.50;;
17369;SDS011;8802;52.402;4.920;2023-06-10T06:42:08;7.80;;;6.95;;
17369;SDS011;8802;52.402;4.920;2023-06-10T06:44:35;7.85;;;7.07;;
17369;SDS011;8802;52.402;4.920;2023-06-10T06:47:03;8.38;;;6.47;;
17369;SDS011;8802;52.402;4.920;2023-06-10T06:49:30;7.53;;;6.53;;
17369;SDS011;8802;52.402;4.920;2023-06-10T06:51:57;6.60;;;6.00;;
17369;SDS011;8802;52.402;4.920;2023-06-10T06:54:24;6.88;;;5.90;;
17369;SDS011;8802;52.402;4.920;2023-06-10T06:56:51;7.45;;;5.88;;
17369;SDS011;8802;52.402;4.920;2023-06-10T06:59:18;8.40;;;6.63;;
17369;SDS011;8802;52.402;4.920;2023-06-10T07:01:46;6.43;;;5.82;;
17369;SDS011;8802;52.402;4.920;2023-06-10T07:04:15;7.38;;;5.97;;
17369;SDS011;8802;52.402;4.920;2023-06-10T07:06:42;8.15;;;6.25;;
17369;SDS011;8802;52.402;4.920;2023-06-10T07:09:09;7.70;;;6.93;;
17369;SDS011;8802;52.402;4.920;2023-06-10T07:11:36;7.10;;;6.25;;
17369;SDS011;8802;52.402;4.920;2023-06-10T07:14:02;9.55;;;6.10;;
17369;SDS011;8802;52.402;4.920;2023-06-10T07:16:29;8.55;;;6.45;;
17369;SDS011;8802;52.402;4.920;2023-06-10T07:18:56;8.10;;;6.47;;
17369;SDS011;8802;52.402;4.920;2023-06-10T07:21:24;7.45;;;6.50;;
17369;SDS011;8802;52.402;4.920;2023-06-10T07:23:53;7.97;;;6.38;;
17369;SDS011;8802;52.402;4.920;2023-06-10T07:26:21;10.30;;;6.60;;
17369;SDS011;8802;52.402;4.920;2023-06-10T07:28:48;7.60;;;6.80;;
17369;SDS011;8802;52.402;4.920;2023-06-10T07:31:15;9.45;;;6.35;;
17369;SDS011;8802;52.402;4.920;2023-06-10T07:33:42;7.68;;;5.82;;
17369;SDS011;8802;52.402;4.920;2023-06-10T07:36:09;7.28;;;6.43;;
17369;SDS011;8802;52.402;4.920;2023-06-10T07:38:37;13.88;;;5.75;;
17369;SDS011;8802;52.402;4.920;2023-06-10T07:41:07;6.38;;;5.78;;
17369;SDS011;8802;52.402;4.920;2023-06-10T07:43:34;6.35;;;5.75;;
17369;SDS011;8802;52.402;4.920;2023-06-10T07:46:01;7.72;;;6.55;;
17369;SDS011;8802;52.402;4.920;2023-06-10T07:48:27;8.02;;;6.65;;
17369;SDS011;8802;52.402;4.920;2023-06-10T07:50:54;9.00;;;6.82;;
17369;SDS011;8802;52.402;4.920;2023-06-10T07:53:21;10.25;;;6.78;;
17369;SDS011;8802;52.402;4.920;2023-06-10T07:55:50;7.18;;;6.20;;
17369;SDS011;8802;52.402;4.920;2023-06-10T07:58:16;7.97;;;6.35;;
17369;SDS011;8802;52.402;4.920;2023-06-10T08:00:43;6.13;;;5.47;;
17369;SDS011;8802;52.402;4.920;2023-06-10T08:03:10;6.25;;;5.65;;
17369;SDS011;8802;52.402;4.920;2023-06-10T08:05:37;9.00;;;6.68;;
17369;SDS011;8802;52.402;4.920;2023-06-10T08:08:06;10.60;;;6.18;;
17369;SDS011;8802;52.402;4.920;2023-06-10T08:10:32;10.65;;;6.35;;
17369;SDS011;8802;52.402;4.920;2023-06-10T08:13:01;7.80;;;6.35;;
17369;SDS011;8802;52.402;4.920;2023-06-10T08:15:28;11.40;;;5.80;;
17369;SDS011;8802;52.402;4.920;2023-06-10T08:17:54;5.95;;;5.28;;
17369;SDS011;8802;52.402;4.920;2023-06-10T08:20:22;6.72;;;6.03;;
17369;SDS011;8802;52.402;4.920;2023-06-10T08:22:49;8.32;;;6.75;;
17369;SDS011;8802;52.402;4.920;2023-06-10T08:25:16;8.10;;;5.80;;
17369;SDS011;8802;52.402;4.920;2023-06-10T08:27:43;6.70;;;5.90;;
17369;SDS011;8802;52.402;4.920;2023-06-10T08:30:11;12.80;;;6.05;;
17369;SDS011;8802;52.402;4.920;2023-06-10T08:32:38;6.85;;;5.78;;
17369;SDS011;8802;52.402;4.920;2023-06-10T08:35:05;6.47;;;5.18;;
17369;SDS011;8802;52.402;4.920;2023-06-10T08:37:32;7.50;;;5.72;;
17369;SDS011;8802;52.402;4.920;2023-06-10T08:39:59;7.82;;;5.80;;
17369;SDS011;8802;52.402;4.920;2023-06-10T08:42:28;9.43;;;7.00;;
17369;SDS011;8802;52.402;4.920;2023-06-10T08:45:00;6.65;;;5.88;;
17369;SDS011;8802;52.402;4.920;2023-06-10T08:47:30;7.15;;;5.60;;
17369;SDS011;8802;52.402;4.920;2023-06-10T08:50:01;8.88;;;5.57;;
17369;SDS011;8802;52.402;4.920;2023-06-10T08:52:33;7.18;;;6.43;;
17369;SDS011;8802;52.402;4.920;2023-06-10T08:55:04;8.98;;;6.45;;
17369;SDS011;8802;52.402;4.920;2023-06-10T08:57:37;7.75;;;6.43;;
17369;SDS011;8802;52.402;4.920;2023-06-10T09:00:04;10.05;;;6.88;;
17369;SDS011;8802;52.402;4.920;2023-06-10T09:02:34;10.52;;;7.20;;
17369;SDS011;8802;52.402;4.920;2023-06-10T09:05:02;7.97;;;6.32;;
17369;SDS011;8802;52.402;4.920;2023-06-10T09:07:29;7.88;;;6.13;;
17369;SDS011;8802;52.402;4.920;2023-06-10T09:09:59;10.70;;;6.90;;
17369;SDS011;8802;52.402;4.920;2023-06-10T09:12:30;9.07;;;6.28;;
17369;SDS011;8802;52.402;4.920;2023-06-10T09:14:56;9.40;;;6.47;;
17369;SDS011;8802;52.402;4.920;2023-06-10T09:17:23;8.60;;;6.88;;
17369;SDS011;8802;52.402;4.920;2023-06-10T09:19:52;10.75;;;6.63;;
17369;SDS011;8802;52.402;4.920;2023-06-10T09:22:22;7.72;;;5.90;;
17369;SDS011;8802;52.402;4.920;2023-06-10T09:24:51;8.70;;;6.50;;
17369;SDS011;8802;52.402;4.920;2023-06-10T09:27:29;7.40;;;6.30;;
17369;SDS011;8802;52.402;4.920;2023-06-10T09:29:56;10.70;;;6.28;;
17369;SDS011;8802;52.402;4.920;2023-06-10T09:32:24;5.90;;;5.38;;
17369;SDS011;8802;52.402;4.920;2023-06-10T09:34:50;8.63;;;5.60;;
17369;SDS011;8802;52.402;4.920;2023-06-10T09:37:22;7.97;;;6.35;;
17369;SDS011;8802;52.402;4.920;2023-06-10T09:40:00;7.68;;;5.93;;
17369;SDS011;8802;52.402;4.920;2023-06-10T09:42:31;6.18;;;5.57;;
17369;SDS011;8802;52.402;4.920;2023-06-10T09:45:00;7.25;;;6.20;;
17369;SDS011;8802;52.402;4.920;2023-06-10T09:47:27;7.90;;;6.25;;
17369;SDS011;8802;52.402;4.920;2023-06-10T09:49:55;7.22;;;5.95;;
17369;SDS011;8802;52.402;4.920;2023-06-10T09:52:22;8.98;;;6.53;;
17369;SDS011;8802;52.402;4.920;2023-06-10T09:54:50;7.38;;;6.25;;
17369;SDS011;8802;52.402;4.920;2023-06-10T09:57:18;6.97;;;6.28;;
17369;SDS011;8802;52.402;4.920;2023-06-10T09:59:45;5.97;;;5.38;;
17369;SDS011;8802;52.402;4.920;2023-06-10T10:02:15;8.25;;;5.97;;
17369;SDS011;8802;52.402;4.920;2023-06-10T10:04:42;6.97;;;6.00;;
17369;SDS011;8802;52.402;4.920;2023-06-10T10:07:10;7.97;;;6.50;;
17369;SDS011;8802;52.402;4.920;2023-06-10T10:09:38;7.78;;;5.60;;
17369;SDS011;8802;52.402;4.920;2023-06-10T10:12:07;5.55;;;5.03;;
17369;SDS011;8802;52.402;4.920;2023-06-10T10:14:36;7.45;;;5.72;;
17369;SDS011;8802;52.402;4.920;2023-06-10T10:17:04;7.82;;;5.50;;
17369;SDS011;8802;52.402;4.920;2023-06-10T10:19:36;7.85;;;5.45;;
17369;SDS011;8802;52.402;4.920;2023-06-10T10:22:14;7.18;;;5.80;;
17369;SDS011;8802;52.402;4.920;2023-06-10T10:24:46;6.13;;;5.18;;
17369;SDS011;8802;52.402;4.920;2023-06-10T10:27:18;8.85;;;5.47;;
17369;SDS011;8802;52.402;4.920;2023-06-10T10:29:47;7.47;;;5.28;;
17369;SDS011;8802;52.402;4.920;2023-06-10T10:32:17;8.35;;;5.93;;
17369;SDS011;8802;52.402;4.920;2023-06-10T10:34:47;7.88;;;5.65;;
17369;SDS011;8802;52.402;4.920;2023-06-10T10:37:20;7.40;;;5.60;;
17369;SDS011;8802;52.402;4.920;2023-06-10T10:39:47;7.75;;;5.72;;
17369;SDS011;8802;52.402;4.920;2023-06-10T10:42:15;6.30;;;5.43;;
17369;SDS011;8802;52.402;4.920;2023-06-10T10:44:43;7.25;;;5.45;;
17369;SDS011;8802;52.402;4.920;2023-06-10T10:47:11;7.97;;;5.55;;
17369;SDS011;8802;52.402;4.920;2023-06-10T10:49:39;6.75;;;5.53;;
17369;SDS011;8802;52.402;4.920;2023-06-10T10:52:11;6.40;;;5.28;;
17369;SDS011;8802;52.402;4.920;2023-06-10T10:54:43;6.95;;;6.22;;
17369;SDS011;8802;52.402;4.920;2023-06-10T10:57:13;9.90;;;5.60;;
17369;SDS011;8802;52.402;4.920;2023-06-10T11:02:33;6.18;;;5.35;;
17369;SDS011;8802;52.402;4.920;2023-06-10T11:05:03;9.40;;;5.70;;
17369;SDS011;8802;52.402;4.920;2023-06-10T11:07:31;8.05;;;5.38;;
17369;SDS011;8802;52.402;4.920;2023-06-10T11:10:02;6.82;;;4.97;;
17369;SDS011;8802;52.402;4.920;2023-06-10T11:12:41;12.68;;;6.00;;
17369;SDS011;8802;52.402;4.920;2023-06-10T11:15:20;6.07;;;5.00;;
17369;SDS011;8802;52.402;4.920;2023-06-10T11:18:08;10.00;;;5.88;;
17369;SDS011;8802;52.402;4.920;2023-06-10T11:20:56;6.65;;;5.10;;
17369;SDS011;8802;52.402;4.920;2023-06-10T11:23:25;7.95;;;5.50;;
17369;SDS011;8802;52.402;4.920;2023-06-10T11:26:10;5.30;;;4.82;;
17369;SDS011;8802;52.402;4.920;2023-06-10T11:28:42;6.38;;;5.05;;
17369;SDS011;8802;52.402;4.920;2023-06-10T11:31:28;8.73;;;5.75;;
17369;SDS011;8802;52.402;4.920;2023-06-10T11:33:56;10.45;;;6.30;;
17369;SDS011;8802;52.402;4.920;2023-06-10T11:36:24;7.82;;;6.57;;
17369;SDS011;8802;52.402;4.920;2023-06-10T11:38:53;12.15;;;5.13;;
17369;SDS011;8802;52.402;4.920;2023-06-10T11:41:23;5.10;;;4.60;;
17369;SDS011;8802;52.402;4.920;2023-06-10T11:43:52;6.22;;;5.43;;
17369;SDS011;8802;52.402;4.920;2023-06-10T11:46:19;4.97;;;4.47;;
17369;SDS011;8802;52.402;4.920;2023-06-10T11:48:49;5.57;;;5.05;;
17369;SDS011;8802;52.402;4.920;2023-06-10T11:51:17;6.85;;;4.68;;
17369;SDS011;8802;52.402;4.920;2023-06-10T11:53:44;6.35;;;5.28;;
17369;SDS011;8802;52.402;4.920;2023-06-10T11:56:11;6.20;;;5.15;;
17369;SDS011;8802;52.402;4.920;2023-06-10T11:58:40;6.40;;;5.15;;
17369;SDS011;8802;52.402;4.920;2023-06-10T12:01:11;8.15;;;4.53;;
17369;SDS011;8802;52.402;4.920;2023-06-10T12:03:45;5.35;;;4.88;;
17369;SDS011;8802;52.402;4.920;2023-06-10T12:06:12;6.18;;;4.80;;
17369;SDS011;8802;52.402;4.920;2023-06-10T12:08:41;5.80;;;4.97;;
17369;SDS011;8802;52.402;4.920;2023-06-10T12:11:08;7.55;;;4.85;;
17369;SDS011;8802;52.402;4.920;2023-06-10T12:13:35;8.82;;;4.97;;
17369;SDS011;8802;52.402;4.920;2023-06-10T12:16:09;7.78;;;4.60;;
17369;SDS011;8802;52.402;4.920;2023-06-10T12:18:37;6.20;;;5.25;;
17369;SDS011;8802;52.402;4.920;2023-06-10T12:21:05;7.53;;;4.70;;
17369;SDS011;8802;52.402;4.920;2023-06-10T12:26:37;5.00;;;4.50;;
17369;SDS011;8802;52.402;4.920;2023-06-10T12:32:00;5.55;;;4.47;;
17369;SDS011;8802;52.402;4.920;2023-06-10T12:34:30;4.57;;;4.18;;
17369;SDS011;8802;52.402;4.920;2023-06-10T12:36:58;5.38;;;4.97;;
17369;SDS011;8802;52.402;4.920;2023-06-10T12:39:25;8.05;;;4.60;;
17369;SDS011;8802;52.402;4.920;2023-06-10T12:41:52;5.00;;;4.30;;
17369;SDS011;8802;52.402;4.920;2023-06-10T12:44:27;5.68;;;5.18;;
17369;SDS011;8802;52.402;4.920;2023-06-10T12:46:55;5.75;;;4.28;;
17369;SDS011;8802;52.402;4.920;2023-06-10T12:49:24;5.82;;;4.45;;
17369;SDS011;8802;52.402;4.920;2023-06-10T12:51:51;5.13;;;4.63;;
17369;SDS011;8802;52.402;4.920;2023-06-10T12:54:18;8.75;;;4.72;;
17369;SDS011;8802;52.402;4.920;2023-06-10T12:56:45;4.90;;;4.38;;
17369;SDS011;8802;52.402;4.920;2023-06-10T12:59:12;6.80;;;4.57;;
17369;SDS011;8802;52.402;4.920;2023-06-10T13:01:39;5.35;;;4.63;;
17369;SDS011;8802;52.402;4.920;2023-06-10T13:04:06;6.75;;;4.38;;
17369;SDS011;8802;52.402;4.920;2023-06-10T13:06:34;6.57;;;4.78;;
17369;SDS011;8802;52.402;4.920;2023-06-10T13:09:04;5.45;;;4.90;;
17369;SDS011;8802;52.402;4.920;2023-06-10T13:11:33;7.90;;;4.75;;
17369;SDS011;8802;52.402;4.920;2023-06-10T13:14:01;6.35;;;4.72;;
17369;SDS011;8802;52.402;4.920;2023-06-10T13:16:30;8.10;;;4.63;;
17369;SDS011;8802;52.402;4.920;2023-06-10T13:18:57;8.82;;;4.90;;
17369;SDS011;8802;52.402;4.920;2023-06-10T13:21:24;9.20;;;4.57;;
17369;SDS011;8802;52.402;4.920;2023-06-10T13:23:52;5.30;;;4.45;;
17369;SDS011;8802;52.402;4.920;2023-06-10T13:26:19;8.10;;;5.00;;
17369;SDS011;8802;52.402;4.920;2023-06-10T13:28:46;4.80;;;4.40;;
17369;SDS011;8802;52.402;4.920;2023-06-10T13:31:13;5.50;;;4.70;;
17369;SDS011;8802;52.402;4.920;2023-06-10T13:33:40;7.10;;;4.70;;
17369;SDS011;8802;52.402;4.920;2023-06-10T13:36:08;5.72;;;4.65;;
17369;SDS011;8802;52.402;4.920;2023-06-10T13:38:35;8.82;;;4.90;;
17369;SDS011;8802;52.402;4.920;2023-06-10T13:41:03;6.35;;;3.97;;
17369;SDS011;8802;52.402;4.920;2023-06-10T13:43:30;6.20;;;4.68;;
17369;SDS011;8802;52.402;4.920;2023-06-10T13:45:57;4.63;;;4.22;;
17369;SDS011;8802;52.402;4.920;2023-06-10T13:48:25;7.70;;;4.95;;
17369;SDS011;8802;52.402;4.920;2023-06-10T13:50:52;4.38;;;3.97;;
17369;SDS011;8802;52.402;4.920;2023-06-10T13:53:18;5.72;;;4.30;;
17369;SDS011;8802;52.402;4.920;2023-06-10T13:55:45;5.15;;;4.65;;
17369;SDS011;8802;52.402;4.920;2023-06-10T13:58:13;6.30;;;4.50;;
17369;SDS011;8802;52.402;4.920;2023-06-10T14:00:40;6.00;;;4.63;;
17369;SDS011;8802;52.402;4.920;2023-06-10T14:03:07;5.25;;;4.75;;
17369;SDS011;8802;52.402;4.920;2023-06-10T14:05:34;6.63;;;4.55;;
17369;SDS011;8802;52.402;4.920;2023-06-10T14:08:01;6.50;;;4.63;;
17369;SDS011;8802;52.402;4.920;2023-06-10T14:10:28;7.72;;;4.22;;
17369;SDS011;8802;52.402;4.920;2023-06-10T14:12:55;4.65;;;4.03;;
17369;SDS011;8802;52.402;4.920;2023-06-10T14:15:23;6.55;;;4.28;;
17369;SDS011;8802;52.402;4.920;2023-06-10T14:17:50;4.55;;;4.15;;
17369;SDS011;8802;52.402;4.920;2023-06-10T14:20:17;5.05;;;4.43;;
17369;SDS011;8802;52.402;4.920;2023-06-10T14:22:44;5.25;;;4.30;;
17369;SDS011;8802;52.402;4.920;2023-06-10T14:25:11;7.40;;;4.50;;
17369;SDS011;8802;52.402;4.920;2023-06-10T14:27:38;7.40;;;4.13;;
17369;SDS011;8802;52.402;4.920;2023-06-10T14:30:05;6.13;;;4.22;;
17369;SDS011;8802;52.402;4.920;2023-06-10T14:32:34;4.70;;;4.30;;
17369;SDS011;8802;52.402;4.920;2023-06-10T14:35:01;4.20;;;3.80;;
17369;SDS011;8802;52.402;4.920;2023-06-10T14:37:28;4.63;;;3.47;;
17369;SDS011;8802;52.402;4.920;2023-06-10T14:39:55;5.25;;;3.83;;
17369;SDS011;8802;52.402;4.920;2023-06-10T14:42:22;6.97;;;3.63;;
17369;SDS011;8802;52.402;4.920;2023-06-10T14:44:49;5.88;;;3.80;;
17369;SDS011;8802;52.402;4.920;2023-06-10T14:47:16;4.30;;;3.88;;
17369;SDS011;8802;52.402;4.920;2023-06-10T14:49:44;4.07;;;3.60;;
17369;SDS011;8802;52.402;4.920;2023-06-10T14:52:11;5.43;;;3.78;;
17369;SDS011;8802;52.402;4.920;2023-06-10T14:54:38;5.18;;;4.13;;
17369;SDS011;8802;52.402;4.920;2023-06-10T14:57:05;6.20;;;3.88;;
17369;SDS011;8802;52.402;4.920;2023-06-10T14:59:32;4.50;;;3.75;;
17369;SDS011;8802;52.402;4.920;2023-06-10T15:02:00;4.82;;;3.10;;
17369;SDS011;8802;52.402;4.920;2023-06-10T15:04:26;4.68;;;3.83;;
17369;SDS011;8802;52.402;4.920;2023-06-10T15:06:55;4.15;;;3.55;;
17369;SDS011;8802;52.402;4.920;2023-06-10T15:09:22;5.43;;;3.58;;
17369;SDS011;8802;52.402;4.920;2023-06-10T15:11:48;4.22;;;3.65;;
17369;SDS011;8802;52.402;4.920;2023-06-10T15:14:15;4.47;;;3.72;;